Time;durP1;ratioP1;P1;durP2;ratioP2;P2;SDS_P1;SDS_P2;PMS_P1;PMS_P2;Temp;Humidity;BMP_temperature;BMP_pressure;BME280_temperature;BME280_humidity;BME280_pressure;Samples;Min_cycle;Max_cycle;Signal;HPM_P1;HPM_P2
2022/07/14 00:01:23;;;;;;;14.43;2.63;;;19.20;75.10;;;;;;5029631;28;20037;-75
2022/07/14 00:03:49;;;;;;;13.07;2.80;;;19.20;75.40;;;;;;5025456;28;20026;-75
2022/07/14 00:06:16;;;;;;;15.75;3.38;;;19.20;75.40;;;;;;5021342;28;20060;-75
2022/07/14 00:08:43;;;;;;;12.77;2.78;;;19.20;75.50;;;;;;5027381;28;20129;-75
2022/07/14 00:11:10;;;;;;;14.43;2.63;;;19.10;75.50;;;;;;5018407;28;20036;-75
2022/07/14 00:13:36;;;;;;;10.23;2.17;;;19.10;75.40;;;;;;5028017;28;20035;-75
2022/07/14 00:16:02;;;;;;;9.15;2.70;;;19.10;75.40;;;;;;5018296;28;20018;-76
2022/07/14 00:18:28;;;;;;;8.93;2.63;;;19.10;75.50;;;;;;5010122;28;20025;-76
2022/07/14 00:20:53;;;;;;;11.77;2.85;;;19.10;75.40;;;;;;5022725;28;20044;-76
2022/07/14 00:23:21;;;;;;;9.82;2.53;;;19.10;75.40;;;;;;5029551;28;20029;-74
2022/07/14 00:25:47;;;;;;;10.68;3.00;;;19.10;75.40;;;;;;5023870;28;20029;-75
2022/07/14 00:28:12;;;;;;;9.65;2.45;;;19.00;75.50;;;;;;5029530;28;20034;-76
2022/07/14 00:30:38;;;;;;;15.32;3.00;;;19.00;75.50;;;;;;5016039;28;20029;-74
2022/07/14 00:33:03;;;;;;;11.75;3.40;;;18.90;75.70;;;;;;5028301;28;20391;-74
2022/07/14 00:35:29;;;;;;;12.55;3.20;;;18.80;75.90;;;;;;5019803;28;20025;-74
2022/07/14 00:37:55;;;;;;;11.75;2.85;;;18.80;76.10;;;;;;5014609;28;20033;-74
2022/07/14 00:40:21;;;;;;;16.98;3.47;;;18.70;76.20;;;;;;5013816;28;20029;-75
2022/07/14 00:42:49;;;;;;;10.35;3.13;;;18.70;76.40;;;;;;5023186;28;20369;-75
2022/07/14 00:45:19;;;;;;;10.95;3.35;;;18.60;76.40;;;;;;5023683;28;20041;-75
2022/07/14 00:47:46;;;;;;;9.68;2.58;;;18.70;76.60;;;;;;5021172;28;20032;-74
2022/07/14 00:50:14;;;;;;;13.35;2.63;;;18.70;76.40;;;;;;5024638;28;20025;-74
2022/07/14 00:52:42;;;;;;;8.15;2.63;;;18.70;76.40;;;;;;5018480;28;20030;-74
2022/07/14 00:55:09;;;;;;;9.93;2.33;;;18.70;76.40;;;;;;5010599;28;20022;-75
2022/07/14 00:57:35;;;;;;;9.52;2.20;;;18.70;76.30;;;;;;5020141;28;20492;-75
2022/07/14 01:00:01;;;;;;;13.20;3.22;;;18.60;76.30;;;;;;5025354;28;20038;-75
2022/07/14 01:02:26;;;;;;;12.40;3.53;;;18.70;76.50;;;;;;5025223;28;20475;-75
2022/07/14 01:04:52;;;;;;;12.98;2.80;;;18.70;76.40;;;;;;5011266;28;20503;-75
2022/07/14 01:07:19;;;;;;;11.45;2.55;;;18.80;76.50;;;;;;5016270;28;20029;-75
2022/07/14 01:09:45;;;;;;;13.07;2.90;;;18.90;76.30;;;;;;5028715;28;20036;-75
2022/07/14 01:12:11;;;;;;;6.93;2.17;;;18.90;76.20;;;;;;5015499;28;20029;-75
2022/07/14 01:14:38;;;;;;;11.50;2.38;;;18.90;75.90;;;;;;5028811;28;20057;-75
2022/07/14 01:17:05;;;;;;;11.73;2.80;;;18.90;75.70;;;;;;5018800;28;20135;-75
2022/07/14 01:19:32;;;;;;;10.70;1.95;;;18.90;75.60;;;;;;5031043;28;20052;-75
2022/07/14 01:21:58;;;;;;;11.40;2.60;;;18.90;75.60;;;;;;5024970;28;20021;-75
2022/07/14 01:24:24;;;;;;;8.27;2.65;;;18.80;75.50;;;;;;5012748;28;20053;-75
2022/07/14 01:26:53;;;;;;;12.45;2.42;;;18.80;75.40;;;;;;5014703;28;20108;-75
2022/07/14 01:29:19;;;;;;;8.98;2.58;;;18.80;75.40;;;;;;4995990;28;20092;-75
2022/07/14 01:31:46;;;;;;;10.05;2.85;;;18.80;75.40;;;;;;5012353;28;20022;-75
2022/07/14 01:34:11;;;;;;;16.88;3.55;;;18.80;75.60;;;;;;4999411;28;20073;-75
2022/07/14 01:36:38;;;;;;;10.65;2.65;;;18.80;75.40;;;;;;5012087;28;20868;-76
2022/07/14 01:39:05;;;;;;;11.20;3.05;;;18.80;75.50;;;;;;5017520;28;20088;-75
2022/07/14 01:41:32;;;;;;;16.65;2.45;;;18.70;75.20;;;;;;5025834;28;20033;-75
2022/07/14 01:43:58;;;;;;;18.27;3.65;;;18.70;75.10;;;;;;5001888;28;20018;-75
2022/07/14 01:46:23;;;;;;;8.27;2.00;;;18.70;75.00;;;;;;5008735;28;20029;-75
2022/07/14 01:48:49;;;;;;;8.23;2.33;;;18.80;75.10;;;;;;5015816;28;20076;-75
2022/07/14 01:51:15;;;;;;;11.73;3.13;;;18.70;75.20;;;;;;5028577;28;20062;-75
2022/07/14 01:53:43;;;;;;;10.30;2.42;;;18.70;75.00;;;;;;5022419;28;20053;-75
2022/07/14 01:56:10;;;;;;;10.70;3.30;;;18.70;74.90;;;;;;5016966;28;20034;-75
2022/07/14 01:58:36;;;;;;;13.02;3.05;;;18.70;74.70;;;;;;5015682;28;20032;-75
2022/07/14 02:03:46;;;;;;;11.32;3.15;;;18.70;75.10;;;;;;5016079;28;20033;-75
2022/07/14 02:06:12;;;;;;;11.60;3.03;;;18.70;74.90;;;;;;5027289;28;20022;-75
2022/07/14 02:08:38;;;;;;;15.10;2.55;;;18.70;75.00;;;;;;5000689;28;20018;-75
2022/07/14 02:13:49;;;;;;;13.20;3.17;;;18.70;75.10;;;;;;5017550;28;20121;-75
2022/07/14 02:16:14;;;;;;;11.43;2.90;;;18.70;75.00;;;;;;5011271;28;20117;-74
2022/07/14 02:18:40;;;;;;;12.02;2.70;;;18.70;75.00;;;;;;5012119;28;20415;-74
2022/07/14 02:21:05;;;;;;;9.48;2.08;;;18.70;75.10;;;;;;4993855;28;20116;-74
2022/07/14 02:23:32;;;;;;;13.57;2.75;;;18.60;74.70;;;;;;5012240;28;20711;-74
2022/07/14 02:25:58;;;;;;;9.23;2.47;;;18.60;75.50;;;;;;5016545;28;20554;-74
2022/07/14 02:28:23;;;;;;;14.65;4.15;;;18.50;74.90;;;;;;5024607;28;20053;-74
2022/07/14 02:30:51;;;;;;;9.65;2.63;;;18.50;75.00;;;;;;5017390;28;20036;-74
2022/07/14 02:33:17;;;;;;;15.45;3.50;;;18.40;75.10;;;;;;5008408;28;20029;-74
2022/07/14 02:35:43;;;;;;;11.13;2.53;;;18.40;75.10;;;;;;5016916;28;20017;-74
2022/07/14 02:38:08;;;;;;;9.48;2.40;;;18.40;75.30;;;;;;5015076;28;20477;-74
2022/07/14 02:40:34;;;;;;;9.38;2.47;;;18.30;75.20;;;;;;5025015;28;20318;-75
2022/07/14 02:43:02;;;;;;;9.68;2.38;;;18.30;75.00;;;;;;5031199;28;20054;-75
2022/07/14 02:45:28;;;;;;;10.15;2.35;;;18.30;75.30;;;;;;5018466;28;20045;-75
2022/07/14 02:47:54;;;;;;;11.77;2.53;;;18.30;75.30;;;;;;5013431;28;20034;-75
2022/07/14 02:50:19;;;;;;;11.02;2.55;;;18.30;75.20;;;;;;5011869;28;20037;-76
2022/07/14 02:52:45;;;;;;;12.20;2.47;;;18.30;75.30;;;;;;5012086;28;20029;-75
2022/07/14 02:55:10;;;;;;;10.93;2.50;;;18.30;75.60;;;;;;5015198;28;20095;-75
2022/07/14 02:57:36;;;;;;;19.17;2.60;;;18.30;76.10;;;;;;5028001;28;20025;-74
2022/07/14 03:00:03;;;;;;;13.38;2.63;;;18.30;76.10;;;;;;5024215;28;20088;-75
2022/07/14 03:02:28;;;;;;;9.73;1.90;;;18.30;75.70;;;;;;5025200;28;20468;-75
2022/07/14 03:04:54;;;;;;;11.75;2.65;;;18.30;75.80;;;;;;5026472;28;20108;-75
2022/07/14 03:07:19;;;;;;;12.15;2.63;;;18.30;75.70;;;;;;5022139;28;20053;-74
2022/07/14 03:09:45;;;;;;;10.43;2.33;;;18.30;75.50;;;;;;5028904;28;20476;-75
2022/07/14 03:12:11;;;;;;;13.38;3.28;;;18.30;75.40;;;;;;5019056;28;20105;-75
2022/07/14 03:14:36;;;;;;;7.38;2.50;;;18.30;75.60;;;;;;5012300;28;20030;-75
2022/07/14 03:17:02;;;;;;;10.68;2.40;;;18.30;75.80;;;;;;5027130;28;20061;-75
2022/07/14 03:19:27;;;;;;;7.55;1.80;;;18.30;75.90;;;;;;5030114;28;20034;-75
2022/07/14 03:21:56;;;;;;;13.23;2.30;;;18.30;76.20;;;;;;5011976;28;20029;-75
2022/07/14 03:24:22;;;;;;;11.50;2.28;;;18.30;76.50;;;;;;5011397;28;20021;-74
2022/07/14 03:26:47;;;;;;;7.85;1.63;;;18.30;76.20;;;;;;5017829;28;20033;-74
2022/07/14 03:29:13;;;;;;;10.57;2.15;;;18.30;76.50;;;;;;5030723;28;20467;-75
2022/07/14 03:31:40;;;;;;;9.52;1.92;;;18.30;76.70;;;;;;5023587;28;20033;-74
2022/07/14 03:34:06;;;;;;;10.82;2.60;;;18.30;76.50;;;;;;5011563;28;20033;-75
2022/07/14 03:36:31;;;;;;;8.75;2.38;;;18.30;75.80;;;;;;5014514;28;20040;-74
2022/07/14 03:38:57;;;;;;;9.48;2.33;;;18.30;75.90;;;;;;5014170;28;20473;-74
2022/07/14 03:41:23;;;;;;;10.20;1.90;;;18.20;75.80;;;;;;5018718;28;20030;-74
2022/07/14 03:43:49;;;;;;;8.80;2.55;;;18.20;75.90;;;;;;5028032;28;20028;-74
2022/07/14 03:46:15;;;;;;;9.85;2.63;;;18.20;75.80;;;;;;5031573;28;20022;-75
2022/07/14 03:48:40;;;;;;;11.35;2.58;;;18.20;75.60;;;;;;5017654;28;20033;-75
2022/07/14 03:51:08;;;;;;;11.93;2.53;;;18.20;75.40;;;;;;5013697;28;20025;-74
2022/07/14 03:53:34;;;;;;;8.73;1.80;;;18.20;75.30;;;;;;5018735;28;20088;-75
2022/07/14 03:56:00;;;;;;;10.73;2.63;;;18.20;75.00;;;;;;5028554;28;20531;-74
2022/07/14 03:58:26;;;;;;;11.88;1.85;;;18.10;74.90;;;;;;5018855;28;20026;-74
2022/07/14 04:00:52;;;;;;;10.98;2.00;;;18.10;74.90;;;;;;5029528;28;20053;-74
2022/07/14 04:03:18;;;;;;;5.85;1.98;;;18.10;74.90;;;;;;5024307;28;20104;-73
2022/07/14 04:05:46;;;;;;;12.65;2.63;;;18.00;75.20;;;;;;5010305;28;20177;-75
2022/07/14 04:08:12;;;;;;;8.68;2.22;;;18.00;75.30;;;;;;5012664;28;20056;-74
2022/07/14 04:10:38;;;;;;;14.68;2.30;;;18.00;75.00;;;;;;5029830;28;20064;-74
2022/07/14 04:13:05;;;;;;;11.85;2.22;;;18.10;75.30;;;;;;5017670;28;20057;-75
2022/07/14 04:15:31;;;;;;;12.68;2.88;;;18.10;75.50;;;;;;5011358;28;20060;-74
2022/07/14 04:17:57;;;;;;;5.85;1.75;;;18.10;75.40;;;;;;5019168;28;20034;-74
2022/07/14 04:20:23;;;;;;;13.30;2.70;;;18.10;75.40;;;;;;5022610;28;20038;-75
2022/07/14 04:22:49;;;;;;;8.88;1.85;;;18.10;75.50;;;;;;5013940;28;20164;-74
2022/07/14 04:25:16;;;;;;;11.40;1.98;;;18.10;75.70;;;;;;5016046;28;20056;-75
2022/07/14 04:27:42;;;;;;;12.63;2.85;;;18.20;76.10;;;;;;5036293;28;20468;-74
2022/07/14 04:30:11;;;;;;;12.32;2.45;;;18.20;76.10;;;;;;5027273;28;20499;-75
2022/07/14 04:32:37;;;;;;;9.68;2.15;;;18.20;76.30;;;;;;5024425;28;20048;-75
2022/07/14 04:35:04;;;;;;;13.13;2.45;;;18.20;75.80;;;;;;5019540;28;20030;-73
2022/07/14 04:37:30;;;;;;;7.68;1.95;;;18.20;75.40;;;;;;5014647;28;20025;-74
2022/07/14 04:39:56;;;;;;;12.30;3.28;;;18.20;75.10;;;;;;5023078;28;20038;-74
2022/07/14 04:42:23;;;;;;;9.48;2.53;;;18.30;75.30;;;;;;5027499;28;20021;-74
2022/07/14 04:44:48;;;;;;;13.57;3.10;;;18.30;75.40;;;;;;5019843;28;20049;-74
2022/07/14 04:47:15;;;;;;;10.90;2.75;;;18.30;75.00;;;;;;5018854;28;20558;-74
2022/07/14 04:52:25;;;;;;;8.60;2.03;;;18.40;75.10;;;;;;5008053;28;20439;-74
2022/07/14 04:54:51;;;;;;;11.45;2.95;;;18.50;75.40;;;;;;5020038;28;20053;-74
2022/07/14 04:57:17;;;;;;;8.60;2.13;;;18.50;75.30;;;;;;5008826;28;20106;-74
2022/07/14 04:59:43;;;;;;;6.38;1.60;;;18.60;75.10;;;;;;5003072;28;20025;-73
2022/07/14 05:02:08;;;;;;;7.53;1.85;;;18.60;74.80;;;;;;5008464;28;20030;-73
2022/07/14 05:04:34;;;;;;;6.50;1.88;;;18.60;74.50;;;;;;5018666;28;20052;-73
2022/07/14 05:07:00;;;;;;;11.48;2.28;;;18.60;74.30;;;;;;5028548;28;20156;-75
2022/07/14 05:09:26;;;;;;;10.68;2.63;;;18.60;74.40;;;;;;5024236;28;20453;-74
2022/07/14 05:11:52;;;;;;;12.75;2.58;;;18.60;74.30;;;;;;4996464;28;20022;-74
2022/07/14 05:14:18;;;;;;;12.70;3.05;;;18.60;74.40;;;;;;5012972;28;20022;-74
2022/07/14 05:16:44;;;;;;;6.82;1.73;;;18.70;74.20;;;;;;5020211;28;20026;-73
2022/07/14 05:19:13;;;;;;;9.45;1.40;;;18.70;74.50;;;;;;5024182;28;20042;-73
2022/07/14 05:21:39;;;;;;;11.25;2.08;;;18.80;74.20;;;;;;5015742;28;20103;-73
2022/07/14 05:24:05;;;;;;;8.40;1.98;;;18.90;73.70;;;;;;5009780;28;20535;-73
2022/07/14 05:26:30;;;;;;;9.18;1.75;;;19.00;73.80;;;;;;5019714;28;20473;-74
2022/07/14 05:28:58;;;;;;;10.23;1.92;;;19.10;73.70;;;;;;5009511;28;20484;-72
2022/07/14 05:31:24;;;;;;;6.93;1.90;;;19.10;73.00;;;;;;5020105;28;20061;-72
2022/07/14 05:33:50;;;;;;;5.88;1.52;;;19.10;72.80;;;;;;4991374;28;20093;-73
2022/07/14 05:36:16;;;;;;;4.75;1.15;;;19.00;72.70;;;;;;5003134;28;20033;-73
2022/07/14 05:38:41;;;;;;;7.38;1.65;;;18.90;73.00;;;;;;5025697;28;20074;-73
2022/07/14 05:41:07;;;;;;;10.13;1.88;;;19.00;72.90;;;;;;5026934;28;20506;-74
2022/07/14 05:43:32;;;;;;;6.78;1.70;;;19.00;72.80;;;;;;5011004;28;20068;-73
2022/07/14 05:46:06;;;;;;;7.25;1.77;;;19.10;72.60;;;;;;5017893;28;20026;-73
2022/07/14 05:48:32;;;;;;;3.88;1.25;;;19.10;72.20;;;;;;5009881;28;20080;-74
2022/07/14 05:51:11;;;;;;;4.95;1.52;;;19.20;72.20;;;;;;5016366;28;20446;-73
2022/07/14 05:53:37;;;;;;;7.40;1.80;;;19.30;71.90;;;;;;5010537;28;20099;-73
2022/07/14 05:56:04;;;;;;;9.27;2.00;;;19.30;71.80;;;;;;5015896;28;20439;-74
2022/07/14 05:58:30;;;;;;;11.75;2.78;;;19.40;71.90;;;;;;4994938;28;20428;-73
2022/07/14 06:00:55;;;;;;;6.85;1.73;;;19.40;71.40;;;;;;5010532;28;20038;-72
2022/07/14 06:03:24;;;;;;;10.00;1.50;;;19.40;71.30;;;;;;5022102;28;20501;-74
2022/07/14 06:05:49;;;;;;;10.13;1.80;;;19.30;71.10;;;;;;5026119;28;20029;-74
2022/07/14 06:08:15;;;;;;;7.57;1.40;;;19.30;71.50;;;;;;5005873;28;20455;-74
2022/07/14 06:10:41;;;;;;;8.35;1.20;;;19.30;71.40;;;;;;5012198;28;20030;-74
2022/07/14 06:13:06;;;;;;;4.78;1.40;;;19.40;71.20;;;;;;5018290;28;20052;-74
2022/07/14 06:15:32;;;;;;;6.15;1.23;;;19.50;70.90;;;;;;5019186;28;20399;-74
2022/07/14 06:17:58;;;;;;;5.63;1.20;;;19.60;71.00;;;;;;5018677;28;20134;-74
2022/07/14 06:20:25;;;;;;;8.50;1.52;;;19.70;70.80;;;;;;5018831;28;20129;-77
2022/07/14 06:22:50;;;;;;;9.73;1.92;;;19.80;70.50;;;;;;5020711;28;20030;-74
2022/07/14 06:25:16;;;;;;;12.85;2.50;;;19.80;70.10;;;;;;5020967;28;20510;-74
2022/07/14 06:27:42;;;;;;;7.72;1.63;;;19.90;69.80;;;;;;5020476;28;20159;-74
2022/07/14 06:30:09;;;;;;;7.05;1.42;;;20.00;69.60;;;;;;5018588;28;20029;-73
2022/07/14 06:32:39;;;;;;;10.20;2.05;;;20.10;69.30;;;;;;5000575;28;20022;-74
2022/07/14 06:35:10;;;;;;;7.82;1.73;;;20.20;69.10;;;;;;5020676;28;20067;-74
2022/07/14 06:37:36;;;;;;;6.68;1.55;;;20.30;68.60;;;;;;5005196;28;20025;-74
2022/07/14 06:40:04;;;;;;;8.50;1.67;;;20.40;68.30;;;;;;5027959;28;20020;-73
2022/07/14 06:42:30;;;;;;;7.85;1.33;;;20.40;67.90;;;;;;5024819;28;20030;-73
2022/07/14 06:44:56;;;;;;;7.95;1.88;;;20.40;67.60;;;;;;5006891;28;20028;-73
2022/07/14 06:47:22;;;;;;;6.38;2.35;;;20.40;67.60;;;;;;5020919;28;20026;-74
2022/07/14 06:49:48;;;;;;;10.55;2.03;;;20.30;68.10;;;;;;5019200;28;20491;-74
2022/07/14 06:52:13;;;;;;;10.35;1.70;;;20.40;68.30;;;;;;5018405;28;20112;-74
2022/07/14 06:54:39;;;;;;;7.45;2.00;;;20.50;68.10;;;;;;5020949;28;20121;-74
2022/07/14 06:57:05;;;;;;;6.55;1.85;;;20.60;67.90;;;;;;5003078;28;20860;-74
2022/07/14 06:59:31;;;;;;;5.57;2.00;;;20.60;68.10;;;;;;5019332;28;20024;-75
2022/07/14 07:01:57;;;;;;;8.18;1.73;;;20.50;68.00;;;;;;5002308;28;20010;-73
2022/07/14 07:04:23;;;;;;;10.68;2.50;;;20.50;68.10;;;;;;5020822;28;20038;-73
2022/07/14 07:06:50;;;;;;;10.63;2.15;;;20.60;67.90;;;;;;5014044;28;20014;-73
2022/07/14 07:09:18;;;;;;;8.93;2.17;;;20.70;67.30;;;;;;5016711;28;20022;-73
2022/07/14 07:11:45;;;;;;;8.00;1.70;;;20.80;67.20;;;;;;5031585;28;20029;-73
2022/07/14 07:14:12;;;;;;;8.45;1.73;;;20.90;66.60;;;;;;5017265;28;20025;-73
2022/07/14 07:16:38;;;;;;;3.90;1.13;;;20.90;65.40;;;;;;4993582;28;20018;-74
2022/07/14 07:19:04;;;;;;;7.53;1.58;;;20.90;66.90;;;;;;5014131;28;20026;-73
2022/07/14 07:21:29;;;;;;;6.30;1.27;;;21.00;65.40;;;;;;5017109;28;20189;-74
2022/07/14 07:23:55;;;;;;;10.65;1.63;;;21.10;66.10;;;;;;5014262;28;20026;-74
2022/07/14 07:26:27;;;;;;;7.93;1.88;;;21.30;65.60;;;;;;5023734;28;20018;-75
2022/07/14 07:28:54;;;;;;;5.75;1.95;;;21.50;65.60;;;;;;5005807;28;20060;-75
2022/07/14 07:31:20;;;;;;;5.35;1.25;;;21.60;64.30;;;;;;5022470;28;20797;-75
2022/07/14 07:33:46;;;;;;;4.65;1.13;;;21.80;64.10;;;;;;5027398;28;20384;-74
2022/07/14 07:36:12;;;;;;;7.40;1.83;;;21.80;62.40;;;;;;5018454;28;20029;-73
2022/07/14 07:38:38;;;;;;;5.40;1.25;;;21.70;63.70;;;;;;5025963;28;20024;-75
2022/07/14 07:41:04;;;;;;;4.80;1.05;;;21.80;64.30;;;;;;5018474;28;20368;-74
2022/07/14 07:43:30;;;;;;;7.88;1.73;;;21.90;63.30;;;;;;5028684;28;20032;-73
2022/07/14 07:45:56;;;;;;;5.13;1.25;;;21.90;60.00;;;;;;5018885;28;20502;-73
2022/07/14 07:48:22;;;;;;;7.15;1.58;;;22.00;60.40;;;;;;5029619;28;20025;-73
2022/07/14 07:50:47;;;;;;;6.22;1.42;;;22.10;62.40;;;;;;5004782;28;20017;-74
2022/07/14 07:53:14;;;;;;;10.18;1.92;;;22.10;61.40;;;;;;5010320;28;20117;-73
2022/07/14 07:55:41;;;;;;;8.95;1.98;;;22.20;59.70;;;;;;5022459;28;20864;-73
2022/07/14 07:58:08;;;;;;;5.65;1.10;;;22.30;60.30;;;;;;5010026;28;20392;-73
2022/07/14 08:00:34;;;;;;;4.65;1.10;;;22.40;61.00;;;;;;5020253;28;20056;-75
2022/07/14 08:03:02;;;;;;;6.75;1.35;;;22.60;61.20;;;;;;5010876;28;20110;-74
2022/07/14 08:05:30;;;;;;;9.23;1.85;;;22.80;60.00;;;;;;5017866;28;20028;-73
2022/07/14 08:07:56;;;;;;;4.40;1.27;;;23.00;58.80;;;;;;5013389;28;20070;-73
2022/07/14 08:10:22;;;;;;;8.32;1.67;;;22.90;59.20;;;;;;5016515;28;20021;-72
2022/07/14 08:12:48;;;;;;;5.53;1.20;;;22.80;60.00;;;;;;4998017;28;20014;-77
2022/07/14 08:15:15;;;;;;;5.55;1.35;;;22.80;59.40;;;;;;5013301;28;20484;-72
2022/07/14 08:17:41;;;;;;;9.65;1.55;;;23.00;58.90;;;;;;4999905;28;20026;-74
2022/07/14 08:20:14;;;;;;;7.65;1.75;;;23.10;55.80;;;;;;5011268;28;20348;-75
2022/07/14 08:22:41;;;;;;;8.82;1.75;;;23.20;56.70;;;;;;5029298;28;20029;-74
2022/07/14 08:25:08;;;;;;;6.55;1.08;;;23.40;56.00;;;;;;5025961;28;20022;-75
2022/07/14 08:27:34;;;;;;;4.25;1.05;;;23.60;57.00;;;;;;5018888;28;20160;-74
2022/07/14 08:30:00;;;;;;;6.82;1.42;;;23.80;56.90;;;;;;5030565;28;20040;-75
2022/07/14 08:32:36;;;;;;;10.15;1.60;;;23.90;54.00;;;;;;5023108;28;20025;-74
2022/07/14 08:35:04;;;;;;;6.15;1.23;;;24.00;51.80;;;;;;5028612;28;20143;-74
2022/07/14 08:37:29;;;;;;;8.02;1.63;;;24.20;56.80;;;;;;4998112;28;20017;-74
2022/07/14 08:39:55;;;;;;;23.13;3.20;;;24.30;53.90;;;;;;5009469;28;20032;-75
2022/07/14 08:42:21;;;;;;;5.85;1.20;;;24.40;52.00;;;;;;5016284;28;20034;-73
2022/07/14 08:44:47;;;;;;;3.47;0.90;;;24.50;51.10;;;;;;5029553;28;20061;-74
2022/07/14 08:47:13;;;;;;;9.68;2.42;;;24.50;52.50;;;;;;5007095;28;20119;-72
2022/07/14 08:49:39;;;;;;;10.50;1.58;;;24.60;53.60;;;;;;5010022;28;20026;-74
2022/07/14 08:52:05;;;;;;;4.65;1.17;;;24.60;49.00;;;;;;5017820;28;20022;-74
2022/07/14 08:54:32;;;;;;;5.68;1.10;;;24.60;49.30;;;;;;5012326;28;20128;-74
2022/07/14 08:56:58;;;;;;;5.57;1.55;;;24.70;52.60;;;;;;4997986;28;20123;-74
2022/07/14 08:59:24;;;;;;;9.55;1.50;;;24.90;51.10;;;;;;5014059;28;20105;-73
2022/07/14 09:01:50;;;;;;;2.75;0.80;;;25.10;50.70;;;;;;5012838;28;20472;-73
2022/07/14 09:04:16;;;;;;;4.32;1.20;;;25.30;52.60;;;;;;5017444;28;20057;-75
2022/07/14 09:06:43;;;;;;;2.67;0.63;;;25.30;48.70;;;;;;5010888;28;20460;-74
2022/07/14 09:09:09;;;;;;;5.05;1.00;;;25.50;50.50;;;;;;5019495;28;20029;-74
2022/07/14 09:11:35;;;;;;;4.80;1.08;;;25.60;51.00;;;;;;5010537;28;20021;-74
2022/07/14 09:14:10;;;;;;;6.30;1.42;;;25.70;53.50;;;;;;5019454;28;20048;-74
2022/07/14 09:16:36;;;;;;;4.22;1.10;;;25.80;54.10;;;;;;5009923;28;20373;-74
2022/07/14 09:19:09;;;;;;;10.05;1.42;;;25.90;50.80;;;;;;5019906;28;20076;-74
2022/07/14 09:21:37;;;;;;;7.20;1.33;;;25.90;54.10;;;;;;5018297;28;20137;-74
2022/07/14 09:24:08;;;;;;;7.63;1.50;;;26.10;54.30;;;;;;5017349;28;20025;-73
2022/07/14 09:26:42;;;;;;;7.32;1.40;;;26.20;50.90;;;;;;5028331;28;20036;-75
2022/07/14 09:29:09;;;;;;;5.78;0.80;;;26.20;47.80;;;;;;5020471;28;20025;-75
2022/07/14 09:31:35;;;;;;;5.40;1.13;;;26.30;48.40;;;;;;5008696;28;20026;-74
2022/07/14 09:34:06;;;;;;;8.27;1.20;;;26.30;52.90;;;;;;5020817;28;20037;-73
2022/07/14 09:36:35;;;;;;;5.68;1.60;;;26.30;48.20;;;;;;5008813;28;20033;-74
2022/07/14 09:39:12;;;;;;;5.63;1.15;;;26.40;49.70;;;;;;5012411;28;20022;-76
2022/07/14 09:41:54;;;;;;;5.38;1.25;;;26.40;51.80;;;;;;5008371;28;20044;-74
2022/07/14 09:44:21;;;;;;;4.10;0.82;;;26.60;51.30;;;;;;5003156;28;20479;-74
2022/07/14 09:46:50;;;;;;;6.28;0.82;;;26.80;51.70;;;;;;4992616;28;20034;-74
2022/07/14 09:49:26;;;;;;;5.87;1.10;;;27.00;47.70;;;;;;4988772;28;20048;-73
2022/07/14 09:52:03;;;;;;;5.20;1.27;;;27.20;44.40;;;;;;5014081;28;20029;-73
2022/07/14 09:54:49;;;;;;;5.10;1.10;;;27.20;50.20;;;;;;5020173;28;20050;-75
2022/07/14 09:57:15;;;;;;;2.22;0.75;;;27.40;46.20;;;;;;5012353;28;20021;-75
2022/07/14 09:59:55;;;;;;;4.13;1.02;;;27.40;48.30;;;;;;5024568;28;20429;-74
2022/07/14 10:02:29;;;;;;;5.15;1.02;;;27.10;47.40;;;;;;4996691;28;20026;-75
2022/07/14 10:05:07;;;;;;;3.88;0.90;;;26.70;44.00;;;;;;5019535;28;20022;-75
2022/07/14 10:07:36;;;;;;;10.32;1.40;;;26.50;44.40;;;;;;5031851;28;20029;-75
2022/07/14 10:10:12;;;;;;;12.43;1.17;;;26.30;47.00;;;;;;5019334;28;20042;-75
2022/07/14 10:12:41;;;;;;;5.65;1.40;;;26.30;53.20;;;;;;5012794;28;20033;-75
2022/07/14 10:15:10;;;;;;;4.35;0.90;;;26.40;46.90;;;;;;5005712;28;20021;-74
2022/07/14 10:17:40;;;;;;;6.80;1.20;;;26.70;49.20;;;;;;5012312;28;20026;-75
2022/07/14 10:20:08;;;;;;;;;;;27.00;52.70;;;;;;5016444;28;20042;-75
2022/07/14 10:22:37;;;;;;;7.72;1.27;;;27.20;44.60;;;;;;5030783;28;19911;-76
2022/07/14 10:25:05;;;;;;;4.57;0.80;;;27.30;47.90;;;;;;5023076;28;20041;-76
2022/07/14 10:27:32;;;;;;;4.20;0.90;;;27.30;53.40;;;;;;5023346;28;20073;-77
2022/07/14 10:29:58;;;;;;;4.68;1.20;;;27.20;51.10;;;;;;5025912;28;20491;-77
2022/07/14 10:32:33;;;;;;;9.13;1.30;;;27.10;52.30;;;;;;5027424;28;20055;-77
2022/07/14 10:35:08;;;;;;;4.70;1.00;;;27.00;48.30;;;;;;5032684;28;20029;-79
2022/07/14 10:37:52;;;;;;;9.25;1.67;;;27.20;43.80;;;;;;5030304;28;20022;-77
2022/07/14 10:40:47;;;;;;;5.75;1.23;;;27.30;42.20;;;;;;5026448;28;20459;-76
2022/07/14 10:43:18;;;;;;;2.53;0.77;;;27.40;40.70;;;;;;5007628;28;20037;-75
2022/07/14 10:45:52;;;;;;;7.43;1.10;;;27.70;41.20;;;;;;5025330;28;20041;-74
2022/07/14 10:48:51;;;;;;;4.68;0.90;;;27.80;40.20;;;;;;5004369;28;20135;-74
2022/07/14 10:51:27;;;;;;;5.93;1.00;;;28.00;42.30;;;;;;4991522;28;20030;-76
2022/07/14 10:54:25;;;;;;;4.85;0.77;;;28.00;44.70;;;;;;5022262;28;20560;-75
2022/07/14 10:57:07;;;;;;;2.75;0.95;;;28.10;47.60;;;;;;5004875;28;20598;-74
2022/07/14 10:59:34;;;;;;;3.97;0.85;;;28.20;46.50;;;;;;5023987;28;20075;-76
2022/07/14 11:02:12;;;;;;;5.47;1.30;;;28.10;47.20;;;;;;5021237;28;20045;-76
2022/07/14 11:04:56;;;;;;;3.75;0.90;;;27.90;50.50;;;;;;5023157;28;20477;-75
2022/07/14 11:07:46;;;;;;;4.05;1.15;;;27.70;42.30;;;;;;5023953;28;20395;-75
2022/07/14 11:10:21;;;;;;;;;;;27.80;42.20;;;;;;5011748;28;20050;-74
2022/07/14 11:13:02;;;;;;;9.35;1.63;;;27.90;40.20;;;;;;5006180;28;19945;-76
2022/07/14 11:15:42;;;;;;;6.07;1.40;;;27.90;40.70;;;;;;5022788;28;20055;-75
2022/07/14 11:18:17;;;;;;;7.55;1.88;;;28.00;43.30;;;;;;5019342;28;20370;-76
2022/07/14 11:20:56;;;;;;;5.55;1.13;;;28.00;39.40;;;;;;5022314;28;20045;-75
2022/07/14 11:23:24;;;;;;;7.30;1.27;;;27.70;40.20;;;;;;5023616;28;20022;-76
2022/07/14 11:25:54;;;;;;;8.20;1.40;;;27.50;43.00;;;;;;5022604;28;20026;-75
2022/07/14 11:28:43;;;;;;;5.72;1.20;;;27.50;41.80;;;;;;5003729;28;20129;-76
2022/07/14 11:31:13;;;;;;;6.35;1.05;;;27.50;41.40;;;;;;5022235;28;20480;-75
2022/07/14 11:36:26;;;;;;;9.02;1.33;;;27.60;46.20;;;;;;5029231;28;20491;-75
2022/07/14 11:39:18;;;;;;;7.03;0.98;;;27.60;42.60;;;;;;5022833;28;20022;-75
2022/07/14 11:41:45;;;;;;;5.55;1.17;;;27.50;41.90;;;;;;5025388;28;20037;-75
2022/07/14 11:44:33;;;;;;;6.47;1.27;;;27.30;41.20;;;;;;5002232;28;20506;-76
2022/07/14 11:47:00;;;;;;;9.77;1.20;;;27.20;41.00;;;;;;5026235;28;20105;-76
2022/07/14 11:49:26;;;;;;;5.30;1.02;;;27.00;41.00;;;;;;5021816;28;20041;-75
2022/07/14 11:51:56;;;;;;;2.90;0.80;;;27.00;41.20;;;;;;5024864;28;20052;-74
2022/07/14 11:54:22;;;;;;;7.57;1.08;;;27.10;41.70;;;;;;5018597;28;20563;-75
2022/07/14 11:56:48;;;;;;;10.68;1.23;;;27.10;41.50;;;;;;5018994;28;20038;-75
2022/07/14 11:59:20;;;;;;;7.25;0.93;;;27.00;41.00;;;;;;5018726;28;20025;-75
2022/07/14 12:01:45;;;;;;;5.60;1.08;;;27.00;43.00;;;;;;5019206;28;20076;-75
2022/07/14 12:04:17;;;;;;;8.60;1.00;;;27.00;41.90;;;;;;5020331;28;20052;-75
2022/07/14 12:06:45;;;;;;;7.30;1.17;;;27.10;43.50;;;;;;5018508;28;20017;-75
2022/07/14 12:09:12;;;;;;;7.28;1.30;;;27.10;43.00;;;;;;5015293;28;20030;-74
2022/07/14 12:11:47;;;;;;;4.35;0.93;;;27.20;41.30;;;;;;5019850;28;20108;-75
2022/07/14 12:14:16;;;;;;;4.15;1.17;;;27.40;44.00;;;;;;5019202;28;20026;-77
2022/07/14 12:16:43;;;;;;;3.67;0.82;;;27.50;46.10;;;;;;4997349;28;20472;-75
2022/07/14 12:19:09;;;;;;;6.78;1.30;;;27.50;44.20;;;;;;5008867;28;20053;-75
2022/07/14 12:21:36;;;;;;;7.95;1.30;;;27.60;44.30;;;;;;5018557;28;20149;-77
2022/07/14 12:24:03;;;;;;;5.55;0.98;;;27.70;43.40;;;;;;5001290;28;20083;-75
2022/07/14 12:26:30;;;;;;;4.72;1.08;;;27.80;46.90;;;;;;5016593;28;20391;-76
2022/07/14 12:28:59;;;;;;;6.15;1.20;;;27.80;42.20;;;;;;5018542;28;20015;-76
2022/07/14 12:31:26;;;;;;;3.75;0.90;;;27.80;41.70;;;;;;5018900;28;20095;-76
2022/07/14 12:33:54;;;;;;;2.90;0.77;;;27.70;42.10;;;;;;4995500;28;20030;-76
2022/07/14 12:36:22;;;;;;;4.10;1.05;;;27.50;40.20;;;;;;5030367;28;20805;-75
2022/07/14 12:38:49;;;;;;;5.35;1.10;;;27.60;40.60;;;;;;5015765;28;20018;-74
2022/07/14 12:41:19;;;;;;;2.28;0.80;;;27.70;42.50;;;;;;5019067;28;20029;-75
2022/07/14 12:43:45;;;;;;;6.20;1.00;;;27.60;41.10;;;;;;5027744;28;20018;-74
2022/07/14 12:46:16;;;;;;;5.47;0.90;;;27.50;40.00;;;;;;5017822;28;20490;-74
2022/07/14 12:48:51;;;;;;;3.92;1.17;;;27.50;40.30;;;;;;5028963;28;20091;-75
2022/07/14 12:51:39;;;;;;;5.55;0.90;;;27.70;43.30;;;;;;5017859;28;20025;-76
2022/07/14 12:54:12;;;;;;;8.50;1.77;;;28.00;40.60;;;;;;5015769;28;20042;-75
2022/07/14 12:56:48;;;;;;;5.90;1.30;;;28.30;39.90;;;;;;5018247;28;20494;-77
2022/07/14 12:59:21;;;;;;;3.13;0.77;;;28.60;37.70;;;;;;5019340;28;20025;-76